createdAt,value
2023-04-26T00:02:16.267Z,100004.94
2023-04-26T00:05:19.993Z,100006.69
2023-04-26T00:08:22.696Z,100007.56
2023-04-26T00:11:25.797Z,100014.63
2023-04-26T00:14:28.706Z,100012.88
2023-04-26T00:17:32.320Z,100004.06
2023-04-26T00:20:35.011Z,99996.09
2023-04-26T00:23:38.216Z,100013.75
2023-04-26T00:26:40.713Z,100018.16
2023-04-26T00:29:43.357Z,100027.00
2023-04-26T00:32:47.326Z,100024.34
2023-04-26T00:35:51.909Z,100030.50
2023-04-26T00:38:55.908Z,100029.63
2023-04-26T00:42:00.080Z,100041.09
2023-04-26T00:45:03.268Z,100043.72
2023-04-26T00:48:06.549Z,100041.97
2023-04-26T00:51:10.205Z,100043.72
2023-04-26T00:54:14.050Z,100045.47
2023-04-26T00:57:16.670Z,100049.03
2023-04-26T01:00:19.460Z,100041.97
2023-04-26T01:03:22.185Z,100041.97
2023-04-26T01:06:25.758Z,100043.72
2023-04-26T01:09:28.982Z,100042.81
2023-04-26T01:12:32.601Z,100053.44
2023-04-26T01:15:36.160Z,100050.78
2023-04-26T01:18:39.573Z,100041.09
2023-04-26T01:21:42.769Z,100044.63
2023-04-26T01:24:48.495Z,100047.25
2023-04-26T01:27:51.412Z,100050.78
2023-04-26T01:30:55.891Z,100058.75
2023-04-26T01:33:58.764Z,100056.09
2023-04-26T01:37:02.973Z,100060.50
2023-04-26T01:40:08.728Z,100060.53
2023-04-26T01:43:13.226Z,100064.06
2023-04-26T01:46:15.933Z,100059.59
2023-04-26T01:49:18.795Z,100056.09
2023-04-26T01:52:23.197Z,100052.56
2023-04-26T01:55:26.033Z,100057.00
2023-04-26T01:58:28.821Z,100053.47
2023-04-26T02:01:31.787Z,100055.22
2023-04-26T02:04:34.621Z,100052.56
2023-04-26T02:07:37.405Z,100049.91
2023-04-26T02:10:40.038Z,100054.34
2023-04-26T02:13:43.018Z,100054.34
2023-04-26T02:16:45.929Z,100056.09
2023-04-26T02:19:51.602Z,100064.94
2023-04-26T02:22:54.171Z,100062.25
2023-04-26T02:25:57.248Z,100055.22
2023-04-26T02:28:59.742Z,100058.75
2023-04-26T02:32:02.584Z,100062.25
2023-04-26T02:35:06.005Z,100069.31
2023-04-26T02:38:08.833Z,100058.75
2023-04-26T02:41:11.380Z,100058.75
2023-04-26T02:44:15.094Z,100073.72
2023-04-26T02:47:17.685Z,100065.81
2023-04-26T02:50:20.570Z,100058.75
2023-04-26T02:53:24.444Z,100064.03
2023-04-26T02:56:27.083Z,100062.28
2023-04-26T02:59:30.617Z,100056.09
2023-04-26T03:02:33.616Z,100064.88
2023-04-26T03:05:36.162Z,100071.03
2023-04-26T03:08:38.796Z,100064.84
2023-04-26T03:11:41.461Z,100061.31
2023-04-26T03:14:44.326Z,100062.16
2023-04-26T03:17:47.194Z,100068.34
2023-04-26T03:20:50.491Z,100067.41
2023-04-26T03:23:53.544Z,100071.75
2023-04-26T03:26:56.896Z,100074.41
2023-04-26T03:29:59.312Z,100074.41
2023-04-26T03:33:03.456Z,100078.75
2023-04-26T03:36:07.251Z,100084.03
2023-04-26T03:39:10.229Z,100092.78
2023-04-26T03:42:13.236Z,100098.03
2023-04-26T03:45:16.890Z,100089.94
2023-04-26T03:48:19.482Z,100089.03
2023-04-26T03:51:22.443Z,100097.72
2023-04-26T03:54:24.868Z,100090.69
2023-04-26T03:57:27.829Z,100100.34
2023-04-26T04:00:30.229Z,100103.69
2023-04-26T04:03:33.489Z,100103.59
2023-04-26T04:06:36.735Z,100116.66
2023-04-26T04:09:39.511Z,100114.78
2023-04-26T04:12:42.102Z,100119.25
2023-04-26T04:15:45.259Z,100113.94
2023-04-26T04:18:47.993Z,100111.28
2023-04-26T04:21:51.248Z,100114.03
2023-04-26T04:24:55.198Z,100117.59
2023-04-26T04:27:58.723Z,100122.84
2023-04-26T04:31:02.082Z,100117.47
2023-04-26T04:34:05.182Z,100112.22
2023-04-26T04:37:10.092Z,100118.34
2023-04-26T04:40:13.606Z,100123.69
2023-04-26T04:43:19.902Z,100121.81
2023-04-26T04:46:22.939Z,100135.00
2023-04-26T04:49:25.450Z,100134.22
2023-04-26T04:52:28.915Z,100146.34
2023-04-26T04:55:31.471Z,100137.59
2023-04-26T04:58:35.185Z,100124.25
2023-04-26T05:01:38.828Z,100136.78
2023-04-26T05:04:48.573Z,100141.19
2023-04-26T05:07:52.033Z,100143.03
2023-04-26T05:10:55.956Z,100150.00
2023-04-26T05:13:58.862Z,100140.22
2023-04-26T05:17:02.072Z,100150.81
2023-04-26T05:20:07.825Z,100155.22
2023-04-26T05:23:11.238Z,100160.53
2023-04-26T05:26:17.005Z,100162.41
2023-04-26T05:29:32.239Z,100165.06
2023-04-26T05:32:57.909Z,100166.84
2023-04-26T05:36:33.307Z,100172.19
2023-04-26T05:39:36.886Z,100168.00
2023-04-26T05:42:39.977Z,100174.25
2023-04-26T05:45:57.149Z,100166.53
2023-04-26T05:49:01.659Z,100165.84
2023-04-26T05:52:04.172Z,100168.59
2023-04-26T05:55:07.363Z,100158.19
2023-04-26T05:58:10.793Z,100159.06
2023-04-26T06:01:15.037Z,100161.84
2023-04-26T06:04:17.773Z,100166.34
2023-04-26T06:07:31.896Z,100158.47
2023-04-26T06:10:36.083Z,100176.13
2023-04-26T06:13:38.853Z,100169.06
2023-04-26T06:16:43.823Z,100165.53
2023-04-26T06:19:46.601Z,100163.75
2023-04-26T06:22:49.425Z,100159.31
2023-04-26T06:25:52.335Z,100164.44
2023-04-26T06:29:00.209Z,100170.34
2023-04-26T06:32:03.063Z,100163.84
2023-04-26T06:35:07.004Z,100152.38
2023-04-26T06:38:10.069Z,100164.53
2023-04-26T06:41:13.648Z,100151.75
2023-04-26T06:44:16.896Z,100155.19
2023-04-26T06:47:19.446Z,100149.63
2023-04-26T06:50:23.106Z,100162.81
2023-04-26T06:53:25.698Z,100157.94
2023-04-26T06:56:28.427Z,100164.13
2023-04-26T06:59:31.278Z,100161.09
2023-04-26T07:02:34.256Z,100169.56
2023-04-26T07:05:37.190Z,100164.25
2023-04-26T07:08:40.147Z,100159.81
2023-04-26T07:11:42.808Z,100166.88
2023-04-26T07:14:46.226Z,100176.09
2023-04-26T07:17:48.804Z,100171.91
2023-04-26T07:20:51.481Z,100176.72
2023-04-26T07:23:57.381Z,100181.53
2023-04-26T07:27:01.463Z,100184.00
2023-04-26T07:30:05.578Z,100188.81
2023-04-26T07:33:08.545Z,100191.34
2023-04-26T07:36:10.993Z,100194.19
2023-04-26T07:39:15.677Z,100190.31
2023-04-26T07:42:18.140Z,100174.38
2023-04-26T07:45:21.162Z,100194.91
2023-04-26T07:48:23.622Z,100199.38
2023-04-26T07:51:27.591Z,100196.41
2023-04-26T07:54:30.086Z,100193.03
2023-04-26T07:57:33.078Z,100189.25
2023-04-26T08:00:39.130Z,100196.91
2023-04-26T08:03:43.024Z,100206.19
2023-04-26T08:06:48.748Z,100206.63
2023-04-26T08:09:51.504Z,100205.00
2023-04-26T08:12:53.985Z,100202.72
2023-04-26T08:15:56.895Z,100205.28
2023-04-26T08:19:04.049Z,100205.19
2023-04-26T08:22:06.845Z,100206.59
2023-04-26T08:25:11.033Z,100209.38
2023-04-26T08:28:14.787Z,100203.50
2023-04-26T08:31:17.782Z,100211.53
2023-04-26T08:34:20.722Z,100221.66
2023-04-26T08:37:23.168Z,100214.50
2023-04-26T08:40:26.219Z,100197.38
2023-04-26T08:43:31.896Z,100199.97
2023-04-26T08:46:48.325Z,100214.38
2023-04-26T08:50:03.145Z,100220.75
2023-04-26T08:53:06.339Z,100222.63
2023-04-26T08:56:11.799Z,100218.81
2023-04-26T08:59:15.061Z,100214.75
2023-04-26T09:02:23.409Z,100211.34
2023-04-26T09:05:30.204Z,100230.34
2023-04-26T09:08:36.272Z,100240.84
2023-04-26T09:11:56.269Z,100242.78
2023-04-26T09:14:58.594Z,100249.03
2023-04-26T09:18:22.376Z,100240.94
2023-04-26T09:21:25.425Z,100250.59
2023-04-26T09:24:28.265Z,100254.94
2023-04-26T09:27:39.219Z,100237.97
2023-04-26T09:30:43.062Z,100248.69
2023-04-26T09:34:01.256Z,100250.47
2023-04-26T09:37:04.096Z,100256.03
2023-04-26T09:40:18.319Z,100262.97
2023-04-26T09:43:23.827Z,100250.59
2023-04-26T09:46:26.494Z,100257.03
2023-04-26T09:49:34.622Z,100263.25
2023-04-26T09:52:44.637Z,100263.31
2023-04-26T09:55:49.776Z,100260.63
2023-04-26T09:59:00.958Z,100257.94
2023-04-26T10:02:04.123Z,100259.59
2023-04-26T10:05:07.926Z,100254.22
2023-04-26T10:08:12.106Z,100256.88
2023-04-26T10:11:14.650Z,100269.19
2023-04-26T10:14:17.506Z,100267.66
2023-04-26T10:17:21.232Z,100272.94
2023-04-26T10:20:27.774Z,100266.81
2023-04-26T10:23:30.334Z,100268.56
2023-04-26T10:26:57.511Z,100261.44
2023-04-26T10:29:59.820Z,100263.94
2023-04-26T10:33:12.328Z,100252.84
2023-04-26T10:36:14.876Z,100248.53
2023-04-26T10:39:17.953Z,100244.69
2023-04-26T10:42:26.035Z,100259.88
2023-04-26T10:45:30.523Z,100265.81
2023-04-26T10:48:33.189Z,100267.28
2023-04-26T10:51:35.801Z,100277.25
2023-04-26T10:54:54.154Z,100280.06
2023-04-26T10:57:57.711Z,100279.25
2023-04-26T11:01:17.514Z,100276.41
2023-04-26T11:04:20.417Z,100273.69
2023-04-26T11:07:38.716Z,100287.34
2023-04-26T11:10:42.300Z,100291.03
2023-04-26T11:13:47.900Z,100289.38
2023-04-26T11:16:50.867Z,100294.69
2023-04-26T11:19:53.226Z,100299.28
2023-04-26T11:22:55.983Z,100307.31
2023-04-26T11:25:59.423Z,100305.72
2023-04-26T11:29:02.163Z,100319.88
2023-04-26T11:32:05.276Z,100313.72
2023-04-26T11:35:08.417Z,100317.28
2023-04-26T11:38:10.963Z,100316.41
2023-04-26T11:41:13.646Z,100310.25
2023-04-26T11:44:20.649Z,100315.44
2023-04-26T11:47:23.932Z,100333.25
2023-04-26T11:50:27.168Z,100327.13
2023-04-26T11:53:55.688Z,100318.31
2023-04-26T11:57:03.163Z,100316.47
2023-04-26T12:00:24.876Z,100320.00
2023-04-26T12:03:32.632Z,100312.91
2023-04-26T12:06:43.899Z,100324.19
2023-04-26T12:09:46.307Z,100317.06
2023-04-26T12:12:53.653Z,100326.84
2023-04-26T12:15:56.623Z,100327.75
2023-04-26T12:18:59.669Z,100340.28
2023-04-26T12:22:02.220Z,100337.72
2023-04-26T12:25:10.472Z,100332.38
2023-04-26T12:28:14.901Z,100334.09
2023-04-26T12:31:17.899Z,100326.97
2023-04-26T12:34:20.514Z,100333.16
2023-04-26T12:37:23.183Z,100335.75
2023-04-26T12:40:26.929Z,100347.31
2023-04-26T12:43:29.838Z,100342.81
2023-04-26T12:46:32.452Z,100328.47
2023-04-26T12:49:35.615Z,100340.81
2023-04-26T12:52:38.208Z,100360.28
2023-04-26T12:55:41.144Z,100353.28
2023-04-26T12:58:43.790Z,100352.38
2023-04-26T13:01:49.236Z,100370.13
2023-04-26T13:04:51.950Z,100362.16
2023-04-26T13:07:54.997Z,100363.00
2023-04-26T13:10:58.037Z,100366.56
2023-04-26T13:14:02.302Z,100360.34
2023-04-26T13:17:05.031Z,100374.53
2023-04-26T13:20:08.328Z,100365.69
2023-04-26T13:23:12.208Z,100366.53
2023-04-26T13:26:20.429Z,100370.91
2023-04-26T13:29:23.862Z,100374.34
2023-04-26T13:32:26.746Z,100382.56
2023-04-26T13:35:29.278Z,100380.91
2023-04-26T13:38:33.021Z,100386.25
2023-04-26T13:41:36.465Z,100385.47
2023-04-26T13:44:40.361Z,100399.59
2023-04-26T13:47:42.795Z,100405.81
2023-04-26T13:50:45.858Z,100394.34
2023-04-26T13:53:50.246Z,100403.16
2023-04-26T13:56:54.845Z,100397.03
2023-04-26T13:59:57.578Z,100394.38
2023-04-26T14:03:00.604Z,100408.53
2023-04-26T14:06:04.049Z,100411.19
2023-04-26T14:09:07.219Z,100422.69
2023-04-26T14:12:10.381Z,100425.31
2023-04-26T14:15:13.457Z,100430.56
2023-04-26T14:18:17.426Z,100422.63
2023-04-26T14:21:20.656Z,100433.22
2023-04-26T14:24:23.410Z,100427.94
2023-04-26T14:27:26.584Z,100436.81
2023-04-26T14:30:29.663Z,100439.50
2023-04-26T14:33:32.744Z,100445.69
2023-04-26T14:36:35.364Z,100453.66
2023-04-26T14:39:38.582Z,100449.25
2023-04-26T14:42:46.834Z,100452.75
2023-04-26T14:45:51.350Z,100449.22
2023-04-26T14:48:54.160Z,100453.63
2023-04-26T14:51:57.176Z,100454.50
2023-04-26T14:54:59.854Z,100458.91
2023-04-26T14:58:03.046Z,100449.19
2023-04-26T15:01:05.695Z,100449.16
2023-04-26T15:04:09.878Z,100450.03
2023-04-26T15:07:21.000Z,100453.59
2023-04-26T15:10:35.590Z,100458.03
2023-04-26T15:13:38.249Z,100461.59
2023-04-26T15:16:41.306Z,100451.00
2023-04-26T15:19:44.629Z,100466.91
2023-04-26T15:22:47.660Z,100464.28
2023-04-26T15:25:50.397Z,100480.19
2023-04-26T15:28:53.506Z,100474.00
2023-04-26T15:31:56.675Z,100472.25
2023-04-26T15:34:59.773Z,100470.47
2023-04-26T15:38:02.328Z,100468.72
2023-04-26T15:41:05.263Z,100466.03
2023-04-26T15:44:07.716Z,100468.69
2023-04-26T15:47:10.576Z,100473.13
2023-04-26T15:50:13.306Z,100473.13
2023-04-26T15:53:16.515Z,100472.25
2023-04-26T15:56:19.122Z,100472.22
2023-04-26T15:59:22.109Z,100466.03
2023-04-26T16:02:24.615Z,100463.41
2023-04-26T16:05:28.102Z,100469.56
2023-04-26T16:08:39.796Z,100472.19
2023-04-26T16:11:43.350Z,100470.44
2023-04-26T16:14:46.065Z,100475.78
2023-04-26T16:17:48.927Z,100472.22
2023-04-26T16:20:51.583Z,100470.47
2023-04-26T16:23:54.438Z,100471.34
2023-04-26T16:26:56.825Z,100480.22
2023-04-26T16:30:00.250Z,100476.66
2023-04-26T16:33:04.895Z,100474.91
2023-04-26T16:36:09.268Z,100471.34
2023-04-26T16:39:14.956Z,100463.41
2023-04-26T16:42:18.358Z,100475.78
2023-04-26T16:45:21.009Z,100479.31
2023-04-26T16:48:23.785Z,100481.09
2023-04-26T16:51:27.201Z,100490.81
2023-04-26T16:54:29.900Z,100488.16
2023-04-26T16:57:32.961Z,100493.44
2023-04-26T17:00:35.809Z,100487.28
2023-04-26T17:03:38.483Z,100500.50
2023-04-26T17:06:41.736Z,100497.91
2023-04-26T17:09:44.630Z,100507.63
2023-04-26T17:12:47.997Z,100507.63
2023-04-26T17:15:50.889Z,100501.38
2023-04-26T17:18:53.773Z,100503.16
2023-04-26T17:21:56.267Z,100509.34
2023-04-26T17:24:59.651Z,100516.34
2023-04-26T17:28:04.959Z,100520.78
2023-04-26T17:31:08.493Z,100517.22
2023-04-26T17:34:11.309Z,100518.97
2023-04-26T17:37:15.101Z,100515.47
2023-04-26T17:40:18.887Z,100520.75
2023-04-26T17:43:24.929Z,100527.81
2023-04-26T17:46:29.452Z,100536.66
2023-04-26T17:49:32.718Z,100535.69
2023-04-26T17:52:35.719Z,100541.09
2023-04-26T17:55:39.348Z,100538.47
2023-04-26T17:58:42.483Z,100537.63
2023-04-26T18:01:46.676Z,100539.34
2023-04-26T18:04:49.995Z,100545.56
2023-04-26T18:07:54.244Z,100547.34
2023-04-26T18:10:58.441Z,100557.06
2023-04-26T18:14:01.278Z,100560.56
2023-04-26T18:17:05.187Z,100563.97
2023-04-26T18:20:08.779Z,100564.94
2023-04-26T18:23:11.976Z,100558.75
2023-04-26T18:26:17.108Z,100569.41
2023-04-26T18:29:20.307Z,100565.88
2023-04-26T18:32:25.228Z,100562.31
2023-04-26T18:35:28.908Z,100568.50
2023-04-26T18:38:32.017Z,100566.72
2023-04-26T18:41:34.936Z,100578.13
2023-04-26T18:44:39.603Z,100573.69
2023-04-26T18:47:43.506Z,100580.66
2023-04-26T18:50:52.587Z,100590.34
2023-04-26T18:53:57.698Z,100578.78
2023-04-26T18:57:03.374Z,100594.63
2023-04-26T19:00:10.221Z,100591.06
2023-04-26T19:03:14.140Z,100590.97
2023-04-26T19:06:18.364Z,100590.97
2023-04-26T19:09:22.031Z,100602.34
2023-04-26T19:12:26.596Z,100604.13
2023-04-26T19:15:30.121Z,100611.88
2023-04-26T19:18:34.866Z,100606.56
2023-04-26T19:21:39.487Z,100609.97
2023-04-26T19:24:46.753Z,100612.56
2023-04-26T19:27:51.149Z,100614.16
2023-04-26T19:30:55.040Z,100611.56
2023-04-26T19:33:59.073Z,100614.16
2023-04-26T19:37:02.103Z,100609.69
2023-04-26T19:40:10.644Z,100617.50
2023-04-26T19:43:14.611Z,100615.69
2023-04-26T19:46:18.569Z,100616.44
2023-04-26T19:49:23.074Z,100618.03
2023-04-26T19:52:28.608Z,100623.13
2023-04-26T19:55:32.232Z,100621.31
2023-04-26T19:58:36.096Z,100628.25
2023-04-26T20:01:40.259Z,100633.28
2023-04-26T20:04:45.351Z,100635.81
2023-04-26T20:07:49.457Z,100639.16
2023-04-26T20:10:53.328Z,100645.31
2023-04-26T20:13:57.850Z,100631.94
2023-04-26T20:17:02.813Z,100638.78
2023-04-26T20:20:10.296Z,100642.97
2023-04-26T20:23:13.838Z,100639.13
2023-04-26T20:26:18.231Z,100647.78
2023-04-26T20:29:22.060Z,100646.91
2023-04-26T20:32:29.068Z,100652.13
2023-04-26T20:35:33.817Z,100645.94
2023-04-26T20:38:38.786Z,100647.53
2023-04-26T20:41:43.439Z,100654.56
2023-04-26T20:44:46.406Z,100646.50
2023-04-26T20:47:49.399Z,100648.13
2023-04-26T20:50:59.238Z,100652.41
2023-04-26T20:54:02.704Z,100656.63
2023-04-26T20:57:06.175Z,100654.66
2023-04-26T21:00:10.656Z,100661.63
2023-04-26T21:03:13.750Z,100656.19
2023-04-26T21:06:16.586Z,100663.03
2023-04-26T21:09:19.405Z,100667.16
2023-04-26T21:12:22.831Z,100674.09
2023-04-26T21:15:25.650Z,100670.34
2023-04-26T21:18:28.112Z,100670.28
2023-04-26T21:21:31.113Z,100676.22
2023-04-26T21:24:33.610Z,100676.84
2023-04-26T21:27:36.431Z,100680.19
2023-04-26T21:30:38.815Z,100679.16
2023-04-26T21:33:41.587Z,100690.38
2023-04-26T21:36:44.238Z,100698.78
2023-04-26T21:39:47.026Z,100699.69
2023-04-26T21:43:04.074Z,100703.00
2023-04-26T21:46:08.348Z,100707.19
2023-04-26T21:49:11.323Z,100716.84
2023-04-26T21:52:14.437Z,100721.84
2023-04-26T21:55:16.900Z,100722.81
2023-04-26T21:58:20.811Z,100726.97
2023-04-26T22:01:23.228Z,100725.13
2023-04-26T22:04:26.216Z,100726.00
2023-04-26T22:07:28.649Z,100733.09
2023-04-26T22:10:31.457Z,100733.03
2023-04-26T22:13:33.873Z,100739.75
2023-04-26T22:16:36.660Z,100743.94
2023-04-26T22:19:39.044Z,100736.91
2023-04-26T22:22:41.822Z,100744.50
2023-04-26T22:25:44.284Z,100747.00
2023-04-26T22:28:47.002Z,100761.28
2023-04-26T22:31:49.424Z,100755.06
2023-04-26T22:34:52.202Z,100751.13
2023-04-26T22:37:55.463Z,100756.59
2023-04-26T22:40:58.297Z,100760.66
2023-04-26T22:44:00.649Z,100764.94
2023-04-26T22:47:03.401Z,100771.47
2023-04-26T22:50:06.388Z,100779.63
2023-04-26T22:53:09.126Z,100773.56
2023-04-26T22:56:11.699Z,100775.56
2023-04-26T22:59:14.478Z,100779.63
2023-04-26T23:02:16.915Z,100783.22
2023-04-26T23:05:19.906Z,100788.53
2023-04-26T23:08:22.433Z,100791.88
2023-04-26T23:11:25.197Z,100792.03
2023-04-26T23:14:29.900Z,100794.19
2023-04-26T23:17:34.334Z,100789.03
2023-04-26T23:20:36.973Z,100792.81
2023-04-26T23:23:39.875Z,100782.91
2023-04-26T23:26:42.474Z,100795.19
2023-04-26T23:29:45.282Z,100794.41
2023-04-26T23:32:47.845Z,100791.81
2023-04-26T23:35:50.912Z,100796.91
2023-04-26T23:38:53.631Z,100801.53
2023-04-26T23:41:56.341Z,100801.09
2023-04-26T23:44:59.096Z,100795.22
2023-04-26T23:48:02.245Z,100799.31
2023-04-26T23:51:05.475Z,100804.56
2023-04-26T23:54:08.406Z,100805.94
2023-04-26T23:57:11.003Z,100812.19
